Time;durP1;ratioP1;P1;durP2;ratioP2;P2;SDS_P1;SDS_P2;PMS_P1;PMS_P2;Temp;Humidity;BMP_temperature;BMP_pressure;BME280_temperature;BME280_humidity;BME280_pressure;Samples;Min_cycle;Max_cycle;Signal;HPM_P1;HPM_P2
2021/03/28 00:02:09;;;;;;;5.32;2.20;;;6.00;67.00;;;;;;5090606;28;20452;-63
2021/03/28 00:04:49;;;;;;;6.60;1.80;;;6.00;67.40;;;;;;5089378;28;20028;-63
2021/03/28 00:07:18;;;;;;;11.00;2.78;;;5.90;67.70;;;;;;5091670;28;20028;-56
2021/03/28 00:09:48;;;;;;;6.03;1.60;;;5.80;68.90;;;;;;5090720;28;20035;-57
2021/03/28 00:12:31;;;;;;;10.32;2.22;;;5.80;68.30;;;;;;5091616;28;20024;-61
2021/03/28 00:15:04;;;;;;;7.05;1.70;;;5.80;74.20;;;;;;5073451;28;20028;-60
2021/03/28 00:17:44;;;;;;;6.35;1.83;;;5.70;68.80;;;;;;5072534;28;20044;-61
2021/03/28 00:20:27;;;;;;;5.00;1.75;;;5.60;69.20;;;;;;5090812;28;20462;-60
2021/03/28 00:23:25;;;;;;;7.30;1.63;;;5.60;69.70;;;;;;5090910;28;20511;-60
2021/03/28 00:26:04;;;;;;;8.15;1.75;;;5.50;69.80;;;;;;5072278;28;20084;-59
2021/03/28 00:28:48;;;;;;;5.85;1.70;;;5.50;70.20;;;;;;5090037;28;20469;-62
2021/03/28 00:31:25;;;;;;;7.38;1.50;;;5.50;70.20;;;;;;5086976;28;20081;-63
2021/03/28 00:34:32;;;;;;;5.20;1.33;;;5.40;70.60;;;;;;5085637;28;20081;-59
2021/03/28 00:37:19;;;;;;;4.90;1.50;;;5.40;70.90;;;;;;5073415;28;20091;-58
2021/03/28 00:39:59;;;;;;;6.15;1.75;;;5.40;71.00;;;;;;5090478;28;20510;-60
2021/03/28 00:42:27;;;;;;;10.32;2.30;;;5.30;71.10;;;;;;5099774;28;20024;-63
2021/03/28 00:45:31;;;;;;;4.20;1.52;;;5.30;71.10;;;;;;5091504;28;20032;-59
2021/03/28 00:48:24;;;;;;;8.05;1.90;;;5.20;70.90;;;;;;5091083;28;20064;-58
2021/03/28 00:51:12;;;;;;;5.55;1.50;;;5.30;70.90;;;;;;5089498;28;20039;-63
2021/03/28 00:53:49;;;;;;;4.60;1.42;;;5.20;70.70;;;;;;5090255;28;20480;-59
2021/03/28 00:56:19;;;;;;;7.65;1.83;;;5.20;70.70;;;;;;5072586;28;20020;-59
2021/03/28 00:58:48;;;;;;;6.30;2.65;;;5.20;71.00;;;;;;5090534;28;20068;-58
2021/03/28 01:01:22;;;;;;;9.10;1.98;;;5.20;71.10;;;;;;5091558;28;20055;-62
2021/03/28 01:04:12;;;;;;;7.57;1.90;;;5.20;71.10;;;;;;5072817;28;20737;-61
2021/03/28 01:06:40;;;;;;;7.88;2.45;;;5.20;71.10;;;;;;5089898;28;20036;-60
2021/03/28 01:09:32;;;;;;;7.88;1.80;;;5.10;71.50;;;;;;5091053;28;20546;-59
2021/03/28 01:12:08;;;;;;;8.80;2.10;;;5.00;71.90;;;;;;5090338;28;20119;-60
2021/03/28 01:14:46;;;;;;;7.43;2.13;;;5.00;72.00;;;;;;5090204;28;20035;-60
2021/03/28 01:17:38;;;;;;;11.23;2.28;;;5.00;71.80;;;;;;5090839;28;20127;-61
2021/03/28 01:20:27;;;;;;;6.35;1.80;;;5.10;71.60;;;;;;5087032;28;20139;-60
2021/03/28 01:23:08;;;;;;;4.07;1.55;;;5.10;71.50;;;;;;5072114;28;20051;-58
2021/03/28 01:25:49;;;;;;;7.30;1.70;;;5.10;71.70;;;;;;5089758;28;20028;-57
2021/03/28 01:28:25;;;;;;;8.40;2.55;;;5.00;72.00;;;;;;5090734;28;20029;-59
2021/03/28 01:30:55;;;;;;;7.13;2.00;;;5.00;72.20;;;;;;5069918;28;20407;-60
2021/03/28 01:33:42;;;;;;;5.70;2.30;;;4.90;72.70;;;;;;5090825;28;20107;-59
2021/03/28 01:36:37;;;;;;;6.10;1.92;;;4.80;73.10;;;;;;5083376;28;20040;-59
2021/03/28 01:39:12;;;;;;;7.10;2.15;;;4.80;73.40;;;;;;5088641;28;20062;-59
2021/03/28 01:41:43;;;;;;;6.65;1.83;;;4.70;74.10;;;;;;5089645;28;20028;-62
2021/03/28 01:44:20;;;;;;;8.50;2.28;;;4.60;74.50;;;;;;5093593;28;20040;-59
2021/03/28 01:46:52;;;;;;;11.30;2.15;;;4.60;74.60;;;;;;5093845;28;20035;-61
2021/03/28 01:49:39;;;;;;;9.80;1.83;;;4.60;74.90;;;;;;5090326;28;20398;-62
2021/03/28 01:52:20;;;;;;;5.28;1.60;;;4.60;74.80;;;;;;5090286;28;20027;-61
2021/03/28 01:55:22;;;;;;;6.00;2.03;;;4.70;74.70;;;;;;5089339;28;20846;-60
2021/03/28 01:57:57;;;;;;;6.45;1.92;;;4.70;74.70;;;;;;5089707;28;20584;-59
2021/03/28 02:00:29;;;;;;;5.95;1.58;;;4.70;74.70;;;;;;5090799;28;20028;-60
2021/03/28 02:03:20;;;;;;;11.38;2.10;;;4.70;75.00;;;;;;5090034;28;20055;-60
2021/03/28 02:06:07;;;;;;;7.30;2.10;;;4.60;75.30;;;;;;5090643;28;20039;-55
2021/03/28 02:08:59;;;;;;;3.85;1.40;;;4.60;75.20;;;;;;5093624;28;20032;-60
2021/03/28 02:11:33;;;;;;;5.88;1.17;;;4.60;75.10;;;;;;5094283;28;20048;-59
2021/03/28 02:14:04;;;;;;;6.90;1.58;;;4.50;75.30;;;;;;5093651;28;20031;-59
2021/03/28 02:16:53;;;;;;;6.80;1.33;;;4.50;75.60;;;;;;5092449;28;20032;-63
2021/03/28 02:19:22;;;;;;;6.90;1.75;;;4.50;75.60;;;;;;5086450;28;20035;-61
2021/03/28 02:22:11;;;;;;;7.70;1.88;;;4.50;75.70;;;;;;5092338;28;20101;-60
2021/03/28 02:24:58;;;;;;;8.38;1.65;;;4.50;76.00;;;;;;5045658;28;20036;-60
2021/03/28 02:27:38;;;;;;;5.22;1.33;;;4.50;75.70;;;;;;5086675;28;20066;-59
2021/03/28 02:30:16;;;;;;;;;;;4.40;75.70;;;;;;5093502;28;20038;-62
2021/03/28 02:32:44;;;;;;;7.20;1.48;;;4.50;75.90;;;;;;5092923;28;19923;-59
2021/03/28 02:35:42;;;;;;;5.55;1.35;;;4.50;75.70;;;;;;5093329;28;20024;-58
2021/03/28 02:38:32;;;;;;;3.67;1.38;;;4.60;75.50;;;;;;5092488;28;20106;-59
2021/03/28 02:41:16;;;;;;;;;;;4.60;75.70;;;;;;5093710;28;20397;-61
2021/03/28 02:44:26;;;;;;;7.20;1.40;;;4.60;76.30;;;;;;5086896;28;19994;-60
2021/03/28 02:47:04;;;;;;;6.28;1.52;;;4.60;76.40;;;;;;5050098;28;20051;-60
2021/03/28 02:50:10;;;;;;;4.78;1.42;;;4.50;77.00;;;;;;5090564;28;20055;-62
2021/03/28 02:52:44;;;;;;;4.90;1.00;;;4.50;77.40;;;;;;5092389;28;20028;-56
2021/03/28 02:55:28;;;;;;;5.53;1.65;;;4.50;77.50;;;;;;5093510;28;20035;-59
2021/03/28 02:58:18;;;;;;;8.27;1.85;;;4.50;77.80;;;;;;5074199;28;20032;-59
2021/03/28 03:01:21;;;;;;;5.28;1.20;;;4.50;77.80;;;;;;5091763;28;20043;-61
2021/03/28 03:04:11;;;;;;;5.50;1.10;;;4.50;77.90;;;;;;5086413;28;20784;-59
2021/03/28 03:06:53;;;;;;;4.93;1.40;;;4.50;77.60;;;;;;5092005;28;20040;-57
2021/03/28 03:09:50;;;;;;;4.55;1.55;;;4.50;78.10;;;;;;5093054;28;20020;-59
2021/03/28 03:12:34;;;;;;;4.35;1.20;;;4.40;78.20;;;;;;5084253;28;20432;-61
2021/03/28 03:15:21;;;;;;;8.75;1.67;;;4.40;77.80;;;;;;5092545;28;20477;-58
2021/03/28 03:18:17;;;;;;;8.43;1.75;;;4.30;78.00;;;;;;5086695;28;20032;-60
2021/03/28 03:21:25;;;;;;;4.28;1.50;;;4.30;78.50;;;;;;5089215;28;20032;-59
2021/03/28 03:23:57;;;;;;;6.80;1.90;;;4.30;79.00;;;;;;5091653;28;20028;-62
2021/03/28 03:26:50;;;;;;;6.28;1.55;;;4.20;79.10;;;;;;5092372;28;20047;-59
2021/03/28 03:29:34;;;;;;;6.03;1.45;;;4.20;79.40;;;;;;5087176;28;20104;-61
2021/03/28 03:32:03;;;;;;;4.00;1.15;;;4.10;79.60;;;;;;5089796;28;20035;-59
2021/03/28 03:34:56;;;;;;;8.15;1.60;;;4.10;79.70;;;;;;5090695;28;20032;-62
2021/03/28 03:37:36;;;;;;;6.18;1.20;;;4.10;79.90;;;;;;5073822;28;20024;-59
2021/03/28 03:40:33;;;;;;;6.70;1.48;;;4.10;80.20;;;;;;5092334;28;20377;-59
2021/03/28 03:42:58;;;;;;;4.57;1.45;;;4.10;80.10;;;;;;5041711;28;20044;-60
2021/03/28 03:46:05;;;;;;;7.85;1.33;;;4.00;79.90;;;;;;5091641;28;20430;-58
2021/03/28 03:49:07;;;;;;;4.65;0.70;;;4.10;80.00;;;;;;5091353;28;20039;-61
2021/03/28 03:51:35;;;;;;;9.60;1.50;;;4.00;79.70;;;;;;5071768;28;20037;-62
2021/03/28 03:54:09;;;;;;;5.40;1.23;;;4.10;79.90;;;;;;5086641;28;20020;-56
2021/03/28 03:56:53;;;;;;;5.55;1.40;;;4.10;79.90;;;;;;5091241;28;20388;-61
2021/03/28 03:59:59;;;;;;;3.15;1.15;;;4.10;80.10;;;;;;5091502;28;20162;-58
2021/03/28 04:02:42;;;;;;;9.20;1.75;;;4.10;80.00;;;;;;5088901;28;20459;-61
2021/03/28 04:05:13;;;;;;;4.55;1.13;;;4.10;80.00;;;;;;5070976;28;20049;-60
2021/03/28 04:07:45;;;;;;;8.75;1.48;;;4.00;80.10;;;;;;5088724;28;20106;-60
2021/03/28 04:10:28;;;;;;;8.25;1.40;;;4.00;80.10;;;;;;5092008;28;20400;-60
2021/03/28 04:13:11;;;;;;;6.13;1.52;;;4.00;80.40;;;;;;5090763;28;20032;-59
2021/03/28 04:15:51;;;;;;;4.28;1.13;;;4.00;80.30;;;;;;5088865;28;20039;-60
2021/03/28 04:18:48;;;;;;;6.53;1.40;;;3.90;80.20;;;;;;5088566;28;20161;-60
2021/03/28 04:21:49;;;;;;;5.72;1.63;;;3.90;80.20;;;;;;5089159;28;20043;-61
2021/03/28 04:24:37;;;;;;;6.20;2.13;;;3.90;80.30;;;;;;5089191;28;20024;-60
2021/03/28 04:27:52;;;;;;;9.00;1.77;;;3.80;80.60;;;;;;5089365;28;20115;-61
2021/03/28 04:30:45;;;;;;;5.07;1.60;;;3.80;80.60;;;;;;5065816;28;20145;-61
2021/03/28 04:33:35;;;;;;;5.40;1.30;;;3.80;80.40;;;;;;5088185;28;20102;-58
2021/03/28 04:36:42;;;;;;;3.47;1.30;;;3.90;80.00;;;;;;5089732;28;20032;-61
2021/03/28 04:39:26;;;;;;;10.75;2.30;;;3.90;80.10;;;;;;5014529;28;20057;-60
2021/03/28 04:41:52;;;;;;;10.23;2.15;;;3.80;81.20;;;;;;5078158;28;20100;-62
2021/03/28 04:44:55;;;;;;;6.72;1.80;;;3.70;82.10;;;;;;5086529;28;20035;-61
2021/03/28 04:47:29;;;;;;;7.10;2.17;;;3.60;83.70;;;;;;5088451;28;20032;-59
2021/03/28 04:49:59;;;;;;;6.15;2.00;;;3.50;84.60;;;;;;5088375;28;20085;-60
2021/03/28 04:52:42;;;;;;;5.53;2.30;;;3.40;85.20;;;;;;5087328;28;20436;-61
2021/03/28 04:55:20;;;;;;;6.38;2.17;;;3.30;86.00;;;;;;5088456;28;20043;-62
2021/03/28 04:58:20;;;;;;;6.22;2.28;;;3.30;87.40;;;;;;5085988;28;20425;-62
2021/03/28 05:01:14;;;;;;;5.90;1.77;;;3.20;88.30;;;;;;5088532;28;20028;-62
2021/03/28 05:04:13;;;;;;;7.80;2.30;;;3.10;88.70;;;;;;5050705;28;20439;-63
2021/03/28 05:07:13;;;;;;;7.45;2.15;;;3.00;89.80;;;;;;5087606;28;20032;-61
2021/03/28 05:09:47;;;;;;;6.70;2.33;;;2.90;90.20;;;;;;5088250;28;20024;-61
2021/03/28 05:12:51;;;;;;;5.78;2.42;;;2.80;90.60;;;;;;5089654;28;20028;-61
2021/03/28 05:15:49;;;;;;;13.30;4.60;;;2.70;91.00;;;;;;5088488;28;20027;-63
2021/03/28 05:18:36;;;;;;;7.88;3.08;;;2.60;92.10;;;;;;5088153;28;20032;-61
2021/03/28 05:21:39;;;;;;;9.13;3.88;;;2.60;92.80;;;;;;5089139;28;20028;-59
2021/03/28 05:24:33;;;;;;;8.25;3.10;;;2.60;92.90;;;;;;5086673;28;20027;-62
2021/03/28 05:27:38;;;;;;;13.90;2.85;;;2.60;93.00;;;;;;5088540;28;20039;-61
2021/03/28 05:30:09;;;;;;;25.15;6.35;;;2.50;93.50;;;;;;5086786;28;20024;-60
2021/03/28 05:32:53;;;;;;;23.92;5.95;;;2.60;95.20;;;;;;5088862;28;20028;-62
2021/03/28 05:35:34;;;;;;;15.55;3.45;;;2.70;95.40;;;;;;5088694;28;20028;-61
2021/03/28 05:38:24;;;;;;;13.48;2.22;;;2.70;94.70;;;;;;5089349;28;20027;-61
2021/03/28 05:41:15;;;;;;;8.65;1.63;;;2.90;93.90;;;;;;5088427;28;20028;-60
2021/03/28 05:43:59;;;;;;;5.30;1.58;;;3.00;93.20;;;;;;5092386;28;20031;-60
2021/03/28 05:46:43;;;;;;;7.47;1.67;;;3.10;92.50;;;;;;5092511;28;20485;-61
2021/03/28 05:49:48;;;;;;;13.48;1.90;;;3.10;92.10;;;;;;5091272;28;20077;-60
2021/03/28 05:52:46;;;;;;;8.25;1.95;;;3.20;92.70;;;;;;5090668;28;20511;-63
2021/03/28 05:55:54;;;;;;;12.07;3.17;;;3.20;91.90;;;;;;5050050;28;20032;-61
2021/03/28 05:58:38;;;;;;;12.05;3.20;;;3.30;91.80;;;;;;5065865;28;20188;-62
2021/03/28 06:01:49;;;;;;;7.97;2.38;;;3.30;91.70;;;;;;5093040;28;20465;-62
2021/03/28 06:04:26;;;;;;;5.80;2.25;;;3.30;91.40;;;;;;5083776;28;20047;-64
2021/03/28 06:07:22;;;;;;;9.07;2.63;;;3.20;91.20;;;;;;5091463;28;20031;-61
2021/03/28 06:10:16;;;;;;;8.85;2.85;;;3.20;91.50;;;;;;5091451;28;20039;-61
2021/03/28 06:13:20;;;;;;;8.00;2.95;;;3.10;91.60;;;;;;5091009;28;20024;-60
2021/03/28 06:16:07;;;;;;;12.88;4.47;;;3.10;91.80;;;;;;5088947;28;20068;-60
2021/03/28 06:18:56;;;;;;;18.52;5.25;;;3.10;92.50;;;;;;5090846;28;20036;-63
2021/03/28 06:21:40;;;;;;;15.85;4.35;;;3.20;92.60;;;;;;5093489;28;20034;-62
2021/03/28 06:24:35;;;;;;;8.85;3.55;;;3.30;91.90;;;;;;5086240;28;20474;-61
2021/03/28 06:27:09;;;;;;;10.70;3.47;;;3.40;91.30;;;;;;5086757;28;20039;-60
2021/03/28 06:29:56;;;;;;;10.30;2.65;;;3.50;90.40;;;;;;5092693;28;20032;-65
2021/03/28 06:32:59;;;;;;;10.73;2.97;;;3.70;90.40;;;;;;5093707;28;20028;-62
2021/03/28 06:36:10;;;;;;;8.70;2.75;;;4.10;87.50;;;;;;5093200;28;20028;-60
2021/03/28 06:38:47;;;;;;;8.50;2.53;;;4.20;86.10;;;;;;5091593;28;20531;-65
2021/03/28 06:41:31;;;;;;;8.88;2.45;;;4.40;84.80;;;;;;5092894;28;20106;-62
2021/03/28 06:44:22;;;;;;;5.88;2.08;;;4.50;84.20;;;;;;5092699;28;20107;-62
2021/03/28 06:46:50;;;;;;;9.27;2.50;;;4.60;83.90;;;;;;5091470;28;20059;-62
2021/03/28 06:49:37;;;;;;;8.63;2.50;;;4.70;83.50;;;;;;5093448;28;20024;-64
2021/03/28 06:52:30;;;;;;;8.35;2.88;;;4.80;83.00;;;;;;5092412;28;20142;-63
2021/03/28 06:54:59;;;;;;;7.82;2.35;;;4.90;81.90;;;;;;5092355;28;20117;-59
2021/03/28 06:57:58;;;;;;;6.88;2.85;;;5.10;80.70;;;;;;5074824;28;20122;-61
2021/03/28 07:00:42;;;;;;;12.50;2.80;;;5.30;79.80;;;;;;5092099;28;20043;-63
2021/03/28 07:03:20;;;;;;;8.80;2.55;;;5.50;78.20;;;;;;5089521;28;20052;-63
2021/03/28 07:06:06;;;;;;;12.98;2.78;;;5.80;76.70;;;;;;5092554;28;20107;-66
2021/03/28 07:09:19;;;;;;;10.95;2.90;;;6.00;76.40;;;;;;5092194;28;20028;-64
2021/03/28 07:12:07;;;;;;;9.73;2.85;;;6.20;74.80;;;;;;5044708;28;20044;-63
2021/03/28 07:15:20;;;;;;;10.80;3.10;;;6.40;74.40;;;;;;5075103;28;20028;-66
2021/03/28 07:18:34;;;;;;;7.38;2.50;;;6.70;73.30;;;;;;5086379;28;20396;-63
2021/03/28 07:21:39;;;;;;;10.18;3.22;;;6.90;72.80;;;;;;5091196;28;20020;-63
2021/03/28 07:24:07;;;;;;;7.18;3.00;;;7.00;71.50;;;;;;5017593;28;20077;-64
2021/03/28 07:26:51;;;;;;;7.93;2.97;;;7.20;71.00;;;;;;5090709;28;20032;-66
2021/03/28 07:29:46;;;;;;;10.93;2.85;;;7.40;69.70;;;;;;5090833;28;20449;-64
2021/03/28 07:32:15;;;;;;;7.80;2.65;;;7.60;69.00;;;;;;5041790;28;20051;-66
2021/03/28 07:35:01;;;;;;;11.77;2.85;;;7.80;68.80;;;;;;5090380;28;20106;-65
2021/03/28 07:37:43;;;;;;;8.50;2.63;;;8.00;68.10;;;;;;5078299;28;20072;-64
2021/03/28 07:40:32;;;;;;;6.85;2.88;;;8.00;68.00;;;;;;5089793;28;20024;-66
2021/03/28 07:43:34;;;;;;;10.38;2.90;;;8.20;67.10;;;;;;5090870;28;20028;-66
2021/03/28 07:46:37;;;;;;;10.02;2.83;;;8.40;66.10;;;;;;5090679;28;20102;-67
2021/03/28 07:49:33;;;;;;;10.70;3.15;;;8.50;65.50;;;;;;5089632;28;20101;-67
2021/03/28 07:52:17;;;;;;;11.20;2.88;;;8.80;65.50;;;;;;5073466;28;20024;-68
2021/03/28 07:55:20;;;;;;;9.10;2.42;;;9.10;63.90;;;;;;5090330;28;20032;-74
2021/03/28 07:58:14;;;;;;;5.85;2.13;;;9.30;62.60;;;;;;5086806;28;20044;-63
2021/03/28 08:01:03;;;;;;;10.65;2.00;;;9.50;61.60;;;;;;5090870;28;20036;-65
2021/03/28 08:04:10;;;;;;;9.10;2.20;;;9.80;61.00;;;;;;5091328;28;20082;-64
2021/03/28 08:06:37;;;;;;;7.95;1.58;;;9.90;60.10;;;;;;5087927;28;20102;-65
2021/03/28 08:09:14;;;;;;;5.93;1.90;;;10.10;59.90;;;;;;5091448;28;20435;-63
2021/03/28 08:11:55;;;;;;;10.20;2.45;;;10.20;59.20;;;;;;5065198;28;20043;-64
2021/03/28 08:14:42;;;;;;;7.47;2.15;;;10.40;57.70;;;;;;5091195;28;20035;-61
2021/03/28 08:17:38;;;;;;;10.10;2.28;;;10.40;57.90;;;;;;5090972;28;20167;-62
2021/03/28 08:20:20;;;;;;;9.65;1.95;;;10.40;57.30;;;;;;5091651;28;20027;-63
2021/03/28 08:23:17;;;;;;;6.43;1.80;;;10.30;57.60;;;;;;5090887;28;20020;-64
2021/03/28 08:26:13;;;;;;;9.20;1.83;;;10.20;58.00;;;;;;5072786;28;20053;-67
2021/03/28 08:28:42;;;;;;;9.00;2.25;;;9.90;58.40;;;;;;5086971;28;20369;-72
2021/03/28 08:31:13;;;;;;;8.48;1.85;;;9.80;59.10;;;;;;5090469;28;20817;-68
2021/03/28 08:33:39;;;;;;;7.65;1.55;;;9.70;60.00;;;;;;5090310;28;20073;-71
2021/03/28 08:36:31;;;;;;;6.90;2.40;;;9.70;60.10;;;;;;5077566;28;20040;-69
2021/03/28 08:39:03;;;;;;;7.32;1.85;;;9.70;60.30;;;;;;5069123;28;20028;-67
2021/03/28 08:41:35;;;;;;;9.73;2.20;;;9.80;60.00;;;;;;5091601;28;20118;-69
2021/03/28 08:44:20;;;;;;;7.07;1.92;;;10.00;59.50;;;;;;5091010;28;20097;-68
2021/03/28 08:47:19;;;;;;;8.43;1.80;;;10.10;59.40;;;;;;5090056;28;20032;-68
2021/03/28 08:49:49;;;;;;;9.23;1.98;;;10.20;59.00;;;;;;5072340;28;20036;-70
2021/03/28 08:52:32;;;;;;;8.23;2.08;;;10.40;58.60;;;;;;5091079;28;20020;-68
2021/03/28 08:55:31;;;;;;;8.57;1.75;;;10.50;57.90;;;;;;5090349;28;20103;-68
2021/03/28 08:58:13;;;;;;;8.48;1.95;;;10.60;57.40;;;;;;5088319;28;20032;-69
2021/03/28 09:01:03;;;;;;;5.70;1.83;;;10.60;57.60;;;;;;5090883;28;20032;-68
2021/03/28 09:04:12;;;;;;;8.63;1.90;;;10.80;56.90;;;;;;5094651;28;20462;-66
2021/03/28 09:07:04;;;;;;;8.93;2.05;;;10.90;56.30;;;;;;5090907;28;20063;-71
2021/03/28 09:09:54;;;;;;;8.80;1.50;;;11.00;55.70;;;;;;5091472;28;20089;-64
2021/03/28 09:13:13;;;;;;;9.77;1.70;;;11.10;54.90;;;;;;5090696;28;20073;-62
2021/03/28 09:16:07;;;;;;;6.45;1.90;;;11.10;54.60;;;;;;5031239;28;20032;-69
2021/03/28 09:19:08;;;;;;;6.72;1.90;;;11.30;52.70;;;;;;5088411;28;20469;-67
2021/03/28 09:21:53;;;;;;;5.72;2.03;;;11.40;53.40;;;;;;5088182;28;20031;-66
2021/03/28 09:24:43;;;;;;;6.10;1.40;;;11.50;52.30;;;;;;5095038;28;20097;-64
2021/03/28 09:27:29;;;;;;;12.23;1.60;;;11.50;52.30;;;;;;5094867;28;20396;-63
2021/03/28 09:30:16;;;;;;;5.95;1.60;;;11.60;50.30;;;;;;5094088;28;20081;-63
2021/03/28 09:33:18;;;;;;;5.60;1.42;;;11.70;51.10;;;;;;5094628;28;20028;-67
2021/03/28 09:36:13;;;;;;;2.67;1.10;;;11.70;48.60;;;;;;5069973;28;20036;-65
2021/03/28 09:38:41;;;;;;;3.03;1.13;;;11.80;48.30;;;;;;5087934;28;20043;-67
2021/03/28 09:41:13;;;;;;;6.18;1.90;;;11.90;48.10;;;;;;5095153;28;20016;-73
2021/03/28 09:44:16;;;;;;;7.63;1.60;;;12.00;48.00;;;;;;5097845;28;20503;-77
2021/03/28 09:47:15;;;;;;;5.47;1.45;;;12.20;46.30;;;;;;5080244;28;20128;-78
2021/03/28 09:49:58;;;;;;;6.05;1.65;;;12.30;47.30;;;;;;5076847;28;20032;-78
2021/03/28 09:52:39;;;;;;;8.40;1.70;;;12.50;46.30;;;;;;5096800;28;20323;-76
2021/03/28 09:55:42;;;;;;;7.95;2.22;;;12.50;45.70;;;;;;5097182;28;20024;-74
2021/03/28 09:58:36;;;;;;;7.30;1.42;;;12.60;45.90;;;;;;5096019;28;20037;-75
2021/03/28 10:01:28;;;;;;;3.70;1.30;;;12.60;46.60;;;;;;5090624;28;20032;-75
2021/03/28 10:04:13;;;;;;;6.30;1.40;;;12.60;46.40;;;;;;5055647;28;20044;-75
2021/03/28 10:06:39;;;;;;;5.57;1.70;;;12.60;45.90;;;;;;5057475;28;20056;-71
2021/03/28 10:09:10;;;;;;;6.90;2.10;;;12.60;45.20;;;;;;5067554;28;20039;-66
2021/03/28 10:12:01;;;;;;;11.00;2.05;;;12.60;44.70;;;;;;5054417;28;20036;-72
2021/03/28 10:14:55;;;;;;;5.88;1.73;;;12.70;44.80;;;;;;5054981;28;20029;-71
2021/03/28 10:17:49;;;;;;;6.55;1.80;;;12.70;45.70;;;;;;5053413;28;20162;-70
2021/03/28 10:20:32;;;;;;;10.60;1.58;;;12.90;45.40;;;;;;5034773;28;20044;-66
2021/03/28 10:23:07;;;;;;;5.95;1.27;;;13.00;44.90;;;;;;5056680;28;20122;-66
2021/03/28 10:25:51;;;;;;;9.10;1.92;;;13.20;44.00;;;;;;5052342;28;20056;-72
2021/03/28 10:28:55;;;;;;;7.80;2.72;;;13.30;43.50;;;;;;5057796;28;20098;-72
2021/03/28 10:31:23;;;;;;;5.88;2.40;;;13.40;43.00;;;;;;5060404;28;20032;-66
2021/03/28 10:33:59;;;;;;;6.32;1.65;;;13.30;43.00;;;;;;5056551;28;20071;-65
2021/03/28 10:37:12;;;;;;;5.88;2.00;;;13.30;42.70;;;;;;5064745;28;20040;-67
2021/03/28 10:39:49;;;;;;;7.35;2.70;;;13.40;42.30;;;;;;5058980;28;20041;-65
2021/03/28 10:42:55;;;;;;;7.03;2.22;;;13.60;42.90;;;;;;5053758;28;20032;-65
2021/03/28 10:45:54;;;;;;;5.55;1.70;;;13.60;42.60;;;;;;5053105;28;20091;-66
2021/03/28 10:48:49;;;;;;;4.28;1.60;;;13.80;42.30;;;;;;5049578;28;20037;-65
2021/03/28 10:51:15;;;;;;;4.18;1.92;;;13.90;41.70;;;;;;5053047;28;20039;-64
2021/03/28 10:53:46;;;;;;;7.10;2.03;;;13.90;41.20;;;;;;5052098;28;20416;-65
2021/03/28 10:56:40;;;;;;;5.32;1.85;;;14.00;41.60;;;;;;5053002;28;20386;-65
2021/03/28 10:59:11;;;;;;;4.68;1.70;;;14.10;41.90;;;;;;5051887;28;20406;-66
2021/03/28 11:01:56;;;;;;;8.75;1.45;;;14.10;41.10;;;;;;5062609;28;20401;-64
2021/03/28 11:04:54;;;;;;;8.82;3.55;;;14.20;40.90;;;;;;5087074;28;20043;-64
2021/03/28 11:07:28;;;;;;;5.63;1.73;;;14.20;40.50;;;;;;5091121;28;20435;-64
2021/03/28 11:10:03;;;;;;;5.47;1.60;;;14.20;40.30;;;;;;5095983;28;20081;-64
2021/03/28 11:12:49;;;;;;;4.43;1.27;;;14.30;40.00;;;;;;5099377;28;20047;-64
2021/03/28 11:15:46;;;;;;;7.22;1.77;;;14.40;39.10;;;;;;5092433;28;20495;-64
2021/03/28 11:18:39;;;;;;;5.95;1.45;;;14.40;39.70;;;;;;5074657;28;20078;-65
2021/03/28 11:21:41;;;;;;;4.63;1.70;;;14.50;40.20;;;;;;5088516;28;20024;-64
2021/03/28 11:24:48;;;;;;;3.63;1.33;;;14.60;39.40;;;;;;5092331;28;20461;-64
2021/03/28 11:27:37;;;;;;;6.22;2.28;;;14.80;39.50;;;;;;5091491;28;20079;-63
2021/03/28 11:30:20;;;;;;;9.38;3.05;;;15.00;38.80;;;;;;5091557;28;20107;-63
2021/03/28 11:32:49;;;;;;;9.55;2.22;;;15.20;38.80;;;;;;5091184;28;20043;-64
2021/03/28 11:35:40;;;;;;;4.63;1.55;;;15.40;38.30;;;;;;5092499;28;20024;-69
2021/03/28 11:38:17;;;;;;;8.25;2.38;;;15.50;37.90;;;;;;5087563;28;20500;-65
2021/03/28 11:40:44;;;;;;;5.25;1.77;;;15.70;38.00;;;;;;5092313;28;20028;-67
2021/03/28 11:43:12;;;;;;;7.43;2.47;;;16.00;37.30;;;;;;5091635;28;20440;-70
2021/03/28 11:45:49;;;;;;;7.82;2.10;;;16.10;37.40;;;;;;5092497;28;20043;-67
2021/03/28 11:48:44;;;;;;;6.07;1.65;;;16.10;37.10;;;;;;5091920;28;20031;-68
2021/03/28 11:51:36;;;;;;;7.80;2.13;;;16.40;37.20;;;;;;5086975;28;20036;-64
2021/03/28 11:54:14;;;;;;;4.40;1.60;;;16.80;37.20;;;;;;5069752;28;20892;-70
2021/03/28 11:56:54;;;;;;;6.32;2.50;;;17.00;37.20;;;;;;5092404;28;20472;-75
2021/03/28 11:59:22;;;;;;;;;;;17.20;36.20;;;;;;5092641;28;20024;-73
2021/03/28 12:04:30;;;;;;;6.80;2.03;;;17.90;35.80;;;;;;5091898;28;20028;-70
2021/03/28 12:07:17;;;;;;;4.10;1.98;;;17.90;35.20;;;;;;5091207;28;20027;-76
2021/03/28 12:10:08;;;;;;;5.20;1.90;;;17.90;35.40;;;;;;5086223;28;20051;-73
2021/03/28 12:12:37;;;;;;;6.43;2.13;;;17.90;34.90;;;;;;5081093;28;20119;-67
2021/03/28 12:15:44;;;;;;;4.83;1.77;;;17.90;35.30;;;;;;5090748;28;20035;-71
2021/03/28 12:18:16;;;;;;;4.80;2.08;;;18.00;34.30;;;;;;5055465;28;20286;-69
2021/03/28 12:20:42;;;;;;;7.40;1.63;;;18.30;34.60;;;;;;5089838;28;20031;-62
2021/03/28 12:23:23;;;;;;;7.07;3.08;;;18.40;33.60;;;;;;5090923;28;20187;-68
2021/03/28 12:26:16;;;;;;;16.00;9.45;;;18.60;33.30;;;;;;5090635;28;20366;-71
2021/03/28 12:28:45;;;;;;;7.45;2.47;;;18.50;33.30;;;;;;5085743;28;20041;-68
2021/03/28 12:31:32;;;;;;;3.70;1.70;;;18.50;33.50;;;;;;5068119;28;20028;-70
2021/03/28 12:34:17;;;;;;;8.18;3.03;;;18.50;33.50;;;;;;5090800;28;20024;-71
2021/03/28 12:36:48;;;;;;;6.28;1.70;;;18.60;34.10;;;;;;5088068;28;20062;-66
2021/03/28 12:39:18;;;;;;;5.57;1.92;;;18.80;33.50;;;;;;5090913;28;20039;-65
2021/03/28 12:42:45;;;;;;;5.25;1.70;;;19.00;33.60;;;;;;5091015;28;20024;-69
2021/03/28 12:45:11;;;;;;;5.22;1.70;;;19.60;33.50;;;;;;5068123;28;20028;-61
2021/03/28 12:47:57;;;;;;;3.30;1.80;;;20.00;31.80;;;;;;5091202;28;20527;-67
2021/03/28 12:50:27;;;;;;;5.28;2.03;;;20.00;31.70;;;;;;5091363;28;20431;-64
2021/03/28 12:53:02;;;;;;;10.38;4.45;;;20.00;31.90;;;;;;5090326;28;20116;-65
2021/03/28 12:55:37;;;;;;;10.48;2.25;;;20.10;32.10;;;;;;5090942;28;20023;-65
2021/03/28 12:58:09;;;;;;;5.60;2.53;;;19.90;31.50;;;;;;5086026;28;20044;-65
2021/03/28 13:00:44;;;;;;;9.57;4.50;;;19.90;31.90;;;;;;5090253;28;20032;-67
2021/03/28 13:03:31;;;;;;;9.52;3.92;;;20.00;31.50;;;;;;5090283;28;20054;-64
2021/03/28 13:06:03;;;;;;;6.85;2.80;;;19.90;31.10;;;;;;5090154;28;20061;-65
2021/03/28 13:08:52;;;;;;;4.68;1.65;;;19.70;31.50;;;;;;5089857;28;20031;-62
2021/03/28 13:11:48;;;;;;;6.72;2.40;;;19.60;32.40;;;;;;5082752;28;20050;-65
2021/03/28 13:14:34;;;;;;;4.07;1.88;;;19.60;31.90;;;;;;5094755;28;20107;-66
2021/03/28 13:17:15;;;;;;;5.93;3.10;;;19.50;32.50;;;;;;5096242;28;20024;-65
2021/03/28 13:19:53;;;;;;;12.00;6.00;;;19.70;32.30;;;;;;5091226;28;20039;-65
2021/03/28 13:22:39;;;;;;;8.25;3.13;;;19.60;31.80;;;;;;5090328;28;20030;-64
2021/03/28 13:25:17;;;;;;;3.67;1.23;;;19.50;32.30;;;;;;5089419;28;20036;-66
2021/03/28 13:27:45;;;;;;;6.75;3.30;;;19.60;32.30;;;;;;5090816;28;20043;-64
2021/03/28 13:30:33;;;;;;;16.95;9.80;;;19.70;31.60;;;;;;5071453;28;20081;-64
2021/03/28 13:33:00;;;;;;;37.92;20.10;;;19.80;31.80;;;;;;5089926;28;20045;-68
2021/03/28 13:35:35;;;;;;;19.35;9.98;;;19.50;32.20;;;;;;5090645;28;20020;-65
2021/03/28 13:38:24;;;;;;;12.55;5.63;;;19.40;32.40;;;;;;5071670;28;20119;-63
2021/03/28 13:40:52;;;;;;;13.07;7.53;;;19.50;32.30;;;;;;5079057;28;20042;-68
2021/03/28 13:43:25;;;;;;;7.90;3.85;;;19.60;32.60;;;;;;5088270;28;20029;-65
2021/03/28 13:45:53;;;;;;;4.55;2.10;;;19.80;32.70;;;;;;5089705;28;20035;-68
2021/03/28 13:48:19;;;;;;;8.10;3.58;;;20.10;31.90;;;;;;5090931;28;20032;-65
2021/03/28 13:50:49;;;;;;;12.15;5.80;;;20.10;31.10;;;;;;5091048;28;20031;-64
2021/03/28 13:53:21;;;;;;;24.65;13.70;;;20.10;31.30;;;;;;5090455;28;20025;-66
2021/03/28 13:56:22;;;;;;;7.57;4.32;;;20.20;31.20;;;;;;5090045;28;20028;-67
2021/03/28 13:59:04;;;;;;;4.70;2.13;;;20.30;31.50;;;;;;4996799;28;20084;-67
2021/03/28 14:01:47;;;;;;;4.45;1.83;;;20.50;30.40;;;;;;5083852;28;20036;-65
2021/03/28 14:04:30;;;;;;;4.18;1.45;;;20.60;30.80;;;;;;5093712;28;20028;-65
2021/03/28 14:07:21;;;;;;;4.35;1.67;;;20.40;30.80;;;;;;5074293;28;20026;-67
2021/03/28 14:10:14;;;;;;;2.47;1.88;;;20.60;30.80;;;;;;5069246;28;20085;-67
2021/03/28 14:13:02;;;;;;;6.68;1.80;;;20.90;30.40;;;;;;5048057;28;20040;-65
2021/03/28 14:16:15;;;;;;;2.25;1.45;;;20.80;30.30;;;;;;5087755;28;20119;-62
2021/03/28 14:18:52;;;;;;;2.20;1.30;;;21.00;30.20;;;;;;5048797;28;20040;-62
2021/03/28 14:21:37;;;;;;;4.15;1.63;;;21.20;30.30;;;;;;5094181;28;20027;-64
2021/03/28 14:24:11;;;;;;;3.25;1.85;;;21.20;30.00;;;;;;5093250;28;20028;-64
2021/03/28 14:26:43;;;;;;;4.07;1.30;;;21.30;29.80;;;;;;5093276;28;20517;-64
2021/03/28 14:29:35;;;;;;;7.07;2.20;;;21.40;29.90;;;;;;5093085;28;20475;-63
2021/03/28 14:32:04;;;;;;;4.82;1.55;;;21.50;29.40;;;;;;5078886;28;20481;-62